createdAt,value
2023-04-22T00:01:10.295Z,3.92
2023-04-22T00:03:38.899Z,4.20
2023-04-22T00:06:06.255Z,4.30
2023-04-22T00:08:34.983Z,4.00
2023-04-22T00:11:02.219Z,4.40
2023-04-22T00:13:29.232Z,4.00
2023-04-22T00:15:56.209Z,4.20
2023-04-22T00:18:23.219Z,4.25
2023-04-22T00:20:50.050Z,4.60
2023-04-22T00:23:17.079Z,4.30
2023-04-22T00:25:43.984Z,4.30
2023-04-22T00:28:11.253Z,4.68
2023-04-22T00:30:38.370Z,4.40
2023-04-22T00:33:05.371Z,5.07
2023-04-22T00:35:32.312Z,4.22
2023-04-22T00:37:59.391Z,4.80
2023-04-22T00:40:26.258Z,4.90
2023-04-22T00:42:53.438Z,5.10
2023-04-22T00:45:20.956Z,4.85
2023-04-22T00:47:49.069Z,4.68
2023-04-22T00:50:16.645Z,4.65
2023-04-22T00:52:43.548Z,5.30
2023-04-22T00:55:11.654Z,4.70
2023-04-22T00:57:39.425Z,4.90
2023-04-22T01:00:07.495Z,4.60
2023-04-22T01:02:34.652Z,4.50
2023-04-22T01:05:03.976Z,4.47
2023-04-22T01:07:30.947Z,5.00
2023-04-22T01:09:58.192Z,4.60
2023-04-22T01:12:25.216Z,4.30
2023-04-22T01:14:52.161Z,5.28
2023-04-22T01:17:19.520Z,4.63
2023-04-22T01:19:47.557Z,4.57
2023-04-22T01:22:15.329Z,4.30
2023-04-22T01:24:42.538Z,4.57
2023-04-22T01:27:09.828Z,4.35
2023-04-22T01:29:38.858Z,4.10
2023-04-22T01:32:06.873Z,4.53
2023-04-22T01:34:34.125Z,4.50
2023-04-22T01:37:00.993Z,5.00
2023-04-22T01:39:29.088Z,4.63
2023-04-22T01:41:56.810Z,4.80
2023-04-22T01:44:24.077Z,5.00
2023-04-22T01:46:50.984Z,4.35
2023-04-22T01:49:18.004Z,4.43
2023-04-22T01:51:44.864Z,4.50
2023-04-22T01:54:12.023Z,4.72
2023-04-22T01:56:40.526Z,4.80
2023-04-22T01:59:08.970Z,5.00
2023-04-22T02:01:35.964Z,4.70
2023-04-22T02:04:02.978Z,4.90
2023-04-22T02:06:29.868Z,5.00
2023-04-22T02:08:56.840Z,5.00
2023-04-22T02:11:23.732Z,4.88
2023-04-22T02:13:51.085Z,4.75
2023-04-22T02:16:18.072Z,5.20
2023-04-22T02:18:45.026Z,5.18
2023-04-22T02:21:11.878Z,4.70
2023-04-22T02:23:39.940Z,4.70
2023-04-22T02:26:08.148Z,4.60
2023-04-22T02:28:35.092Z,4.60
2023-04-22T02:31:02.186Z,4.60
2023-04-22T02:33:29.120Z,4.75
2023-04-22T02:35:56.131Z,4.75
2023-04-22T02:38:23.025Z,4.47
2023-04-22T02:40:50.004Z,4.20
2023-04-22T02:43:16.853Z,4.50
2023-04-22T02:45:43.845Z,4.10
2023-04-22T02:48:10.817Z,3.92
2023-04-22T02:50:37.831Z,4.20
2023-04-22T02:53:04.796Z,3.72
2023-04-22T02:55:31.687Z,4.10
2023-04-22T02:57:58.658Z,3.70
2023-04-22T03:00:25.643Z,4.00
2023-04-22T03:02:52.744Z,4.20
2023-04-22T03:05:19.731Z,3.80
2023-04-22T03:07:47.582Z,3.80
2023-04-22T03:10:14.392Z,3.90
2023-04-22T03:12:41.608Z,3.70
2023-04-22T03:15:09.132Z,3.60
2023-04-22T03:17:36.200Z,3.78
2023-04-22T03:20:03.358Z,3.70
2023-04-22T03:22:30.424Z,4.15
2023-04-22T03:24:57.243Z,4.03
2023-04-22T03:27:24.195Z,3.90
2023-04-22T03:29:51.209Z,3.58
2023-04-22T03:32:18.147Z,3.80
2023-04-22T03:34:45.137Z,3.70
2023-04-22T03:37:12.161Z,3.67
2023-04-22T03:39:39.320Z,4.00
2023-04-22T03:42:06.413Z,4.40
2023-04-22T03:44:33.337Z,3.60
2023-04-22T03:47:00.253Z,3.80
2023-04-22T03:49:27.498Z,4.00
2023-04-22T03:51:54.323Z,4.05
2023-04-22T03:54:21.424Z,3.83
2023-04-22T03:56:48.290Z,3.33
2023-04-22T03:59:15.377Z,3.42
2023-04-22T04:01:42.366Z,3.00
2023-04-22T04:04:09.643Z,2.80
2023-04-22T04:06:36.871Z,2.30
2023-04-22T04:09:04.022Z,2.72
2023-04-22T04:11:31.215Z,2.33
2023-04-22T04:13:58.135Z,2.15
2023-04-22T04:16:25.141Z,2.05
2023-04-22T04:18:52.326Z,2.00
2023-04-22T04:21:19.265Z,1.98
2023-04-22T04:23:47.463Z,1.85
2023-04-22T04:26:15.131Z,1.77
2023-04-22T04:28:42.200Z,1.50
2023-04-22T04:31:09.243Z,1.70
2023-04-22T04:33:37.116Z,1.73
2023-04-22T04:36:04.366Z,1.60
2023-04-22T04:38:31.475Z,2.00
2023-04-22T04:40:58.686Z,1.90
2023-04-22T04:43:27.009Z,1.92
2023-04-22T04:45:53.986Z,1.85
2023-04-22T04:48:21.128Z,2.10
2023-04-22T04:50:48.222Z,2.08
2023-04-22T04:53:15.157Z,1.90
2023-04-22T04:55:42.133Z,1.80
2023-04-22T04:58:09.068Z,1.97
2023-04-22T05:00:35.971Z,1.70
2023-04-22T05:03:03.203Z,1.90
2023-04-22T05:05:30.401Z,1.80
2023-04-22T05:07:57.448Z,1.75
2023-04-22T05:10:25.487Z,2.00
2023-04-22T05:12:52.685Z,1.70
2023-04-22T05:15:19.530Z,1.80
2023-04-22T05:17:46.460Z,1.70
2023-04-22T05:20:13.530Z,1.88
2023-04-22T05:22:45.936Z,1.60
2023-04-22T05:25:12.986Z,2.10
2023-04-22T05:27:41.200Z,2.10
2023-04-22T05:30:08.788Z,1.70
2023-04-22T05:32:35.721Z,2.00
2023-04-22T05:35:03.192Z,1.58
2023-04-22T05:37:30.079Z,1.60
2023-04-22T05:39:57.095Z,2.00
2023-04-22T05:42:24.017Z,1.97
2023-04-22T05:44:51.251Z,1.60
2023-04-22T05:47:18.221Z,1.73
2023-04-22T05:49:45.078Z,1.70
2023-04-22T05:52:12.047Z,1.80
2023-04-22T05:54:39.012Z,1.63
2023-04-22T05:57:06.407Z,1.70
2023-04-22T05:59:33.263Z,1.80
2023-04-22T06:02:00.300Z,1.90
2023-04-22T06:04:27.449Z,1.90
2023-04-22T06:06:54.708Z,1.98
2023-04-22T06:09:22.020Z,1.70
2023-04-22T06:11:49.179Z,1.80
2023-04-22T06:14:16.065Z,2.00
2023-04-22T06:16:43.048Z,1.60
2023-04-22T06:19:10.516Z,1.70
2023-04-22T06:21:40.049Z,1.70
2023-04-22T06:24:07.069Z,2.47
2023-04-22T06:26:34.008Z,2.20
2023-04-22T06:29:02.936Z,2.30
2023-04-22T06:31:30.019Z,2.60
2023-04-22T06:33:57.026Z,2.50
2023-04-22T06:36:24.336Z,2.30
2023-04-22T06:38:51.211Z,2.50
2023-04-22T06:41:18.349Z,2.30
2023-04-22T06:43:45.388Z,2.47
2023-04-22T06:46:12.417Z,2.40
2023-04-22T06:48:39.456Z,2.40
2023-04-22T06:51:06.377Z,2.63
2023-04-22T06:53:33.243Z,2.60
2023-04-22T06:56:00.377Z,2.90
2023-04-22T06:58:27.261Z,2.70
2023-04-22T07:00:54.140Z,2.78
2023-04-22T07:03:21.311Z,2.72
2023-04-22T07:05:48.774Z,2.30
2023-04-22T07:08:15.875Z,2.80
2023-04-22T07:10:42.830Z,2.70
2023-04-22T07:13:09.704Z,2.67
2023-04-22T07:15:36.715Z,2.80
2023-04-22T07:18:03.779Z,2.72
2023-04-22T07:20:30.743Z,2.70
2023-04-22T07:22:57.700Z,2.90
2023-04-22T07:25:24.622Z,2.70
2023-04-22T07:27:51.592Z,3.00
2023-04-22T07:30:18.572Z,3.10
2023-04-22T07:32:47.569Z,2.70
2023-04-22T07:35:15.813Z,2.97
2023-04-22T07:37:42.871Z,2.95
2023-04-22T07:40:12.046Z,2.92
2023-04-22T07:42:40.146Z,2.90
2023-04-22T07:45:07.679Z,2.80
2023-04-22T07:47:34.967Z,2.80
2023-04-22T07:50:02.071Z,2.65
2023-04-22T07:52:30.076Z,3.15
2023-04-22T07:54:57.382Z,3.10
2023-04-22T07:57:24.707Z,3.00
2023-04-22T07:59:52.392Z,3.08
2023-04-22T08:02:19.598Z,2.65
2023-04-22T08:04:46.649Z,2.92
2023-04-22T08:07:31.011Z,2.90
2023-04-22T08:10:00.167Z,3.03
2023-04-22T08:12:27.425Z,2.83
2023-04-22T08:14:54.426Z,2.80
2023-04-22T08:17:22.237Z,2.80
2023-04-22T08:19:49.747Z,2.63
2023-04-22T08:22:18.551Z,2.83
2023-04-22T08:24:45.635Z,2.70
2023-04-22T08:27:12.718Z,2.85
2023-04-22T08:29:39.754Z,2.72
2023-04-22T08:32:06.885Z,2.78
2023-04-22T08:34:33.891Z,2.50
2023-04-22T08:37:00.881Z,2.60
2023-04-22T08:39:28.042Z,2.58
2023-04-22T08:41:56.336Z,2.70
2023-04-22T08:44:23.499Z,2.40
2023-04-22T08:46:51.920Z,2.50
2023-04-22T08:49:19.398Z,2.70
2023-04-22T08:51:46.460Z,2.40
2023-04-22T08:54:13.516Z,2.60
2023-04-22T08:56:45.815Z,2.20
2023-04-22T08:59:13.882Z,2.40
2023-04-22T09:01:41.879Z,2.08
2023-04-22T09:04:14.611Z,2.33
2023-04-22T09:06:41.605Z,2.22
2023-04-22T09:09:11.452Z,2.50
2023-04-22T09:11:38.527Z,2.30
2023-04-22T09:14:06.035Z,2.55
2023-04-22T09:16:34.248Z,2.20
2023-04-22T09:19:01.631Z,2.45
2023-04-22T09:21:29.240Z,2.80
2023-04-22T09:23:57.050Z,2.40
2023-04-22T09:26:26.291Z,2.40
2023-04-22T09:28:58.871Z,2.40
2023-04-22T09:31:27.727Z,2.20
2023-04-22T09:33:56.807Z,2.03
2023-04-22T09:36:30.150Z,2.10
2023-04-22T09:39:04.023Z,2.00
2023-04-22T09:41:32.515Z,1.90
2023-04-22T09:44:01.360Z,2.00
2023-04-22T09:46:30.811Z,1.95
2023-04-22T09:48:59.511Z,1.70
2023-04-22T09:51:29.767Z,1.63
2023-04-22T09:54:01.044Z,1.60
2023-04-22T09:56:50.987Z,1.50
2023-04-22T09:59:28.626Z,1.80
2023-04-22T10:01:58.378Z,1.40
2023-04-22T10:04:25.947Z,1.60
2023-04-22T10:06:53.944Z,1.60
2023-04-22T10:09:23.027Z,1.50
2023-04-22T10:11:52.744Z,1.45
2023-04-22T10:14:21.442Z,1.42
2023-04-22T10:16:49.707Z,1.50
2023-04-22T10:19:23.272Z,1.60
2023-04-22T10:21:57.135Z,1.60
2023-04-22T10:24:27.415Z,1.58
2023-04-22T10:26:57.187Z,1.40
2023-04-22T10:29:25.458Z,1.50
2023-04-22T10:31:55.076Z,1.50
2023-04-22T10:34:22.104Z,1.40
2023-04-22T10:37:06.591Z,1.60
2023-04-22T10:39:33.801Z,1.50
2023-04-22T10:42:03.516Z,1.35
2023-04-22T10:44:44.888Z,1.40
2023-04-22T10:47:11.853Z,1.33
2023-04-22T10:49:39.084Z,1.40
2023-04-22T10:52:08.751Z,1.52
2023-04-22T10:54:38.598Z,1.38
2023-04-22T10:57:19.236Z,1.37
2023-04-22T10:59:54.374Z,1.48
2023-04-22T11:02:22.848Z,1.60
2023-04-22T11:04:50.494Z,1.60
2023-04-22T11:07:20.832Z,1.70
2023-04-22T11:09:51.074Z,1.60
2023-04-22T11:12:38.264Z,1.40
2023-04-22T11:15:18.260Z,1.50
2023-04-22T11:17:52.580Z,1.40
2023-04-22T11:20:20.519Z,1.50
2023-04-22T11:22:57.177Z,1.40
2023-04-22T11:25:25.331Z,1.70
2023-04-22T11:27:54.118Z,1.40
2023-04-22T11:30:23.800Z,1.70
2023-04-22T11:32:53.187Z,1.67
2023-04-22T11:35:23.038Z,1.60
2023-04-22T11:37:58.488Z,1.60
2023-04-22T11:40:32.606Z,1.40
2023-04-22T11:43:03.202Z,1.40
2023-04-22T11:45:32.574Z,1.40
2023-04-22T11:48:00.543Z,1.50
2023-04-22T11:50:30.153Z,1.30
2023-04-22T11:53:02.471Z,1.50
2023-04-22T11:55:38.791Z,1.58
2023-04-22T11:58:17.476Z,1.35
2023-04-22T12:00:52.282Z,1.30
2023-04-22T12:03:21.746Z,1.30
2023-04-22T12:06:03.767Z,1.40
2023-04-22T12:08:44.324Z,1.50
2023-04-22T12:11:12.123Z,1.50
2023-04-22T12:13:39.048Z,1.90
2023-04-22T12:16:14.405Z,1.40
2023-04-22T12:18:55.545Z,1.40
2023-04-22T12:21:28.468Z,1.50
2023-04-22T12:24:00.416Z,1.52
2023-04-22T12:26:28.293Z,1.50
2023-04-22T12:28:57.676Z,1.40
2023-04-22T12:31:25.205Z,1.40
2023-04-22T12:33:52.283Z,1.70
2023-04-22T12:36:23.368Z,1.40
2023-04-22T12:38:51.155Z,1.60
2023-04-22T12:41:18.201Z,1.40
2023-04-22T12:43:45.128Z,1.42
2023-04-22T12:46:12.210Z,1.60
2023-04-22T12:48:39.209Z,1.40
2023-04-22T12:51:07.174Z,1.40
2023-04-22T12:53:34.711Z,1.65
2023-04-22T12:56:01.902Z,1.52
2023-04-22T12:58:28.916Z,1.50
2023-04-22T13:00:55.874Z,1.40
2023-04-22T13:03:22.991Z,1.60
2023-04-22T13:05:50.428Z,1.80
2023-04-22T13:08:17.936Z,1.40
2023-04-22T13:10:44.934Z,1.50
2023-04-22T13:15:41.734Z,1.50
2023-04-22T13:18:08.731Z,1.50
2023-04-22T13:20:36.146Z,1.50
2023-04-22T13:23:04.676Z,1.40
2023-04-22T13:25:32.269Z,1.50
2023-04-22T13:27:59.218Z,1.30
2023-04-22T13:30:26.322Z,1.80
2023-04-22T13:32:53.428Z,1.40
2023-04-22T13:35:20.842Z,1.70
2023-04-22T13:37:47.783Z,1.60
2023-04-22T13:40:15.379Z,1.60
2023-04-22T13:42:44.413Z,1.80
2023-04-22T13:45:11.490Z,1.90
2023-04-22T13:47:38.523Z,2.63
2023-04-22T13:50:06.350Z,1.77
2023-04-22T13:52:34.027Z,1.52
2023-04-22T13:55:02.480Z,1.80
2023-04-22T13:57:29.592Z,1.70
2023-04-22T13:59:56.502Z,1.52
2023-04-22T14:02:23.521Z,1.60
2023-04-22T14:04:50.533Z,1.48
2023-04-22T14:07:17.384Z,1.50
2023-04-22T14:09:44.482Z,1.60
2023-04-22T14:12:12.094Z,1.70
2023-04-22T14:14:39.204Z,1.60
2023-04-22T14:17:06.836Z,1.50
2023-04-22T14:19:34.183Z,1.50
2023-04-22T14:22:01.306Z,1.70
2023-04-22T14:24:28.562Z,1.60
2023-04-22T14:26:59.310Z,1.45
2023-04-22T14:29:26.297Z,1.60
2023-04-22T14:31:53.418Z,1.40
2023-04-22T14:34:20.372Z,1.50
2023-04-22T14:36:47.305Z,1.40
2023-04-22T14:39:14.239Z,1.50
2023-04-22T14:41:41.294Z,1.50
2023-04-22T14:44:08.418Z,1.50
2023-04-22T14:46:35.495Z,1.50
2023-04-22T14:49:02.581Z,1.60
2023-04-22T14:51:31.616Z,1.50
2023-04-22T14:53:58.597Z,1.20
2023-04-22T14:56:25.459Z,1.63
2023-04-22T14:58:52.514Z,1.63
2023-04-22T15:01:20.743Z,1.42
2023-04-22T15:03:49.102Z,1.52
2023-04-22T15:06:16.106Z,1.45
2023-04-22T15:08:43.073Z,1.40
2023-04-22T15:11:10.034Z,1.70
2023-04-22T15:13:37.011Z,1.30
2023-04-22T15:16:03.987Z,1.60
2023-04-22T15:18:32.312Z,1.50
2023-04-22T15:20:59.329Z,1.40
2023-04-22T15:23:26.410Z,1.40
2023-04-22T15:25:53.798Z,1.40
2023-04-22T15:28:20.752Z,1.30
2023-04-22T15:30:48.737Z,1.40
2023-04-22T15:33:15.978Z,1.30
2023-04-22T15:35:45.612Z,1.30
2023-04-22T15:38:12.542Z,1.30
2023-04-22T15:40:39.571Z,1.30
2023-04-22T15:43:06.485Z,1.52
2023-04-22T15:45:35.389Z,1.50
2023-04-22T15:48:02.819Z,1.50
2023-04-22T15:50:29.934Z,1.50
2023-04-22T15:52:56.897Z,1.42
2023-04-22T15:55:24.065Z,1.40
2023-04-22T15:57:50.965Z,1.40
2023-04-22T16:00:18.263Z,1.30
2023-04-22T16:02:45.509Z,1.40
2023-04-22T16:05:14.116Z,1.27
2023-04-22T16:07:41.273Z,1.40
2023-04-22T16:10:09.130Z,1.40
2023-04-22T16:12:36.019Z,1.55
2023-04-22T16:15:02.999Z,1.40
2023-04-22T16:17:30.307Z,2.00
2023-04-22T16:19:57.302Z,3.08
2023-04-22T16:22:24.494Z,4.32
2023-04-22T16:24:51.600Z,2.90
2023-04-22T16:27:19.262Z,1.95
2023-04-22T16:29:46.585Z,1.85
2023-04-22T16:32:13.765Z,1.90
2023-04-22T16:34:40.826Z,2.00
2023-04-22T16:37:08.174Z,2.13
2023-04-22T16:39:35.484Z,1.90
2023-04-22T16:42:03.141Z,1.85
2023-04-22T16:44:30.369Z,1.60
2023-04-22T16:46:57.333Z,1.40
2023-04-22T16:49:24.330Z,1.42
2023-04-22T16:51:51.496Z,1.30
2023-04-22T16:54:18.603Z,1.20
2023-04-22T16:56:45.632Z,1.40
2023-04-22T16:59:12.577Z,1.70
2023-04-22T17:01:41.216Z,1.50
2023-04-22T17:04:08.844Z,1.60
2023-04-22T17:06:37.586Z,1.57
2023-04-22T17:09:06.464Z,1.40
2023-04-22T17:11:33.546Z,1.30
2023-04-22T17:14:00.672Z,1.90
2023-04-22T17:16:27.699Z,1.30
2023-04-22T17:18:54.672Z,1.67
2023-04-22T17:21:23.284Z,1.92
2023-04-22T17:23:50.762Z,1.70
2023-04-22T17:26:17.667Z,1.55
2023-04-22T17:28:44.697Z,1.30
2023-04-22T17:31:11.913Z,1.30
2023-04-22T17:33:40.807Z,1.13
2023-04-22T17:36:07.905Z,1.47
2023-04-22T17:38:34.933Z,1.20
2023-04-22T17:41:01.888Z,1.40
2023-04-22T17:43:28.824Z,1.50
2023-04-22T17:45:55.920Z,1.58
2023-04-22T17:48:22.916Z,1.42
2023-04-22T17:50:50.412Z,1.60
2023-04-22T17:53:17.577Z,1.50
2023-04-22T17:55:44.596Z,1.60
2023-04-22T17:58:11.651Z,1.60
2023-04-22T18:00:39.075Z,1.65
2023-04-22T18:03:06.456Z,1.80
2023-04-22T18:05:33.460Z,1.70
2023-04-22T18:08:04.284Z,1.90
2023-04-22T18:10:31.487Z,2.10
2023-04-22T18:12:58.487Z,1.80
2023-04-22T18:15:25.429Z,1.50
2023-04-22T18:17:52.490Z,1.50
2023-04-22T18:20:20.130Z,1.60
2023-04-22T18:22:48.875Z,1.90
2023-04-22T18:25:16.551Z,1.50
2023-04-22T18:27:44.314Z,1.30
2023-04-22T18:30:11.632Z,1.40
2023-04-22T18:32:38.984Z,1.65
2023-04-22T18:35:06.648Z,1.80
2023-04-22T18:37:34.681Z,1.40
2023-04-22T18:40:02.499Z,1.40
2023-04-22T18:42:30.015Z,1.30
2023-04-22T18:44:56.986Z,1.60
2023-04-22T18:47:24.008Z,1.50
2023-04-22T18:49:50.950Z,1.60
2023-04-22T18:52:18.218Z,1.55
2023-04-22T18:54:45.184Z,1.60
2023-04-22T18:57:12.333Z,1.40
2023-04-22T18:59:39.803Z,1.50
2023-04-22T19:02:06.988Z,1.45
2023-04-22T19:04:34.143Z,1.70
2023-04-22T19:07:01.096Z,1.90
2023-04-22T19:09:29.188Z,1.58
2023-04-22T19:11:56.266Z,1.60
2023-04-22T19:14:23.252Z,1.77
2023-04-22T19:16:50.413Z,1.98
2023-04-22T19:19:17.848Z,1.50
2023-04-22T19:21:45.117Z,1.60
2023-04-22T19:24:14.286Z,1.58
2023-04-22T19:26:41.358Z,1.40
2023-04-22T19:29:08.712Z,1.60
2023-04-22T19:31:35.877Z,1.30
2023-04-22T19:34:03.125Z,1.50
2023-04-22T19:36:30.147Z,1.42
2023-04-22T19:38:57.057Z,1.60
2023-04-22T19:41:24.171Z,1.60
2023-04-22T19:43:51.273Z,1.70
2023-04-22T19:46:18.342Z,1.80
2023-04-22T19:48:45.654Z,1.20
2023-04-22T19:51:13.165Z,1.50
2023-04-22T19:53:41.248Z,1.50
2023-04-22T19:56:09.578Z,1.57
2023-04-22T19:58:37.849Z,1.50
2023-04-22T20:01:04.958Z,1.50
2023-04-22T20:03:32.942Z,1.40
2023-04-22T20:06:00.782Z,1.60
2023-04-22T20:08:28.253Z,1.50
2023-04-22T20:10:55.808Z,1.50
2023-04-22T20:13:23.145Z,1.38
2023-04-22T20:15:50.267Z,1.20
2023-04-22T20:18:17.781Z,1.30
2023-04-22T20:20:49.472Z,1.50
2023-04-22T20:23:20.835Z,1.60
2023-04-22T20:25:49.575Z,1.73
2023-04-22T20:28:16.854Z,1.60
2023-04-22T20:30:43.832Z,1.67
2023-04-22T20:33:15.177Z,1.77
2023-04-22T20:35:44.514Z,1.80
2023-04-22T20:38:13.412Z,1.83
2023-04-22T20:40:41.268Z,1.70
2023-04-22T20:43:08.476Z,1.45
2023-04-22T20:45:35.384Z,1.70
2023-04-22T20:48:02.487Z,1.80
2023-04-22T20:50:33.467Z,1.63
2023-04-22T20:53:01.289Z,1.50
2023-04-22T20:55:30.045Z,3.50
2023-04-22T20:57:57.014Z,1.90
2023-04-22T21:00:24.009Z,1.40
2023-04-22T21:02:51.907Z,1.30
2023-04-22T21:05:19.332Z,1.30
2023-04-22T21:07:52.049Z,1.40
2023-04-22T21:10:22.355Z,1.40
2023-04-22T21:12:49.648Z,1.52
2023-04-22T21:15:17.003Z,1.60
2023-04-22T21:17:52.475Z,1.30
2023-04-22T21:20:21.962Z,1.40
2023-04-22T21:22:49.271Z,1.40
2023-04-22T21:25:21.563Z,1.40
2023-04-22T21:27:48.720Z,1.48
2023-04-22T21:30:16.249Z,1.40
2023-04-22T21:32:43.123Z,1.30
2023-04-22T21:35:10.379Z,1.40
2023-04-22T21:37:37.476Z,1.25
2023-04-22T21:40:05.175Z,1.20
2023-04-22T21:42:32.080Z,1.30
2023-04-22T21:44:59.129Z,1.48
2023-04-22T21:47:26.192Z,1.40
2023-04-22T21:49:53.170Z,1.40
2023-04-22T21:52:20.046Z,1.30
2023-04-22T21:54:47.015Z,1.30
2023-04-22T21:57:13.988Z,1.40
2023-04-22T21:59:40.851Z,1.33
2023-04-22T22:02:07.804Z,1.30
2023-04-22T22:04:35.296Z,1.70
2023-04-22T22:07:02.543Z,1.40
2023-04-22T22:09:29.425Z,1.70
2023-04-22T22:11:57.226Z,1.50
2023-04-22T22:14:24.188Z,1.70
2023-04-22T22:16:53.672Z,1.50
2023-04-22T22:19:21.225Z,1.30
2023-04-22T22:21:48.133Z,1.70
2023-04-22T22:24:15.215Z,1.45
2023-04-22T22:26:42.894Z,1.50
2023-04-22T22:29:15.413Z,1.52
2023-04-22T22:31:44.440Z,1.50
2023-04-22T22:34:11.557Z,1.67
2023-04-22T22:36:38.601Z,1.40
2023-04-22T22:39:05.768Z,1.40
2023-04-22T22:41:32.824Z,1.80
2023-04-22T22:43:59.825Z,1.30
2023-04-22T22:46:26.786Z,1.40
2023-04-22T22:48:54.613Z,1.30
2023-04-22T22:51:21.935Z,1.40
2023-04-22T22:53:48.978Z,1.30
2023-04-22T22:56:18.047Z,1.42
2023-04-22T22:58:46.128Z,1.40
2023-04-22T23:01:13.191Z,1.40
2023-04-22T23:03:40.354Z,1.30
2023-04-22T23:06:07.766Z,1.20
2023-04-22T23:08:34.696Z,1.50
2023-04-22T23:11:02.046Z,1.30
2023-04-22T23:13:28.962Z,1.50
2023-04-22T23:15:56.037Z,1.27
2023-04-22T23:18:23.269Z,1.20
2023-04-22T23:20:51.858Z,1.10
2023-04-22T23:23:19.562Z,1.20
2023-04-22T23:25:47.854Z,1.30
2023-04-22T23:28:15.076Z,1.13
2023-04-22T23:30:44.024Z,1.10
2023-04-22T23:33:14.578Z,1.00
2023-04-22T23:35:43.012Z,1.10
2023-04-22T23:38:11.760Z,1.20
2023-04-22T23:40:38.679Z,1.30
2023-04-22T23:43:05.668Z,1.30
2023-04-22T23:45:32.723Z,1.20
2023-04-22T23:47:59.653Z,1.17
2023-04-22T23:50:26.810Z,1.10
2023-04-22T23:52:53.661Z,1.00
2023-04-22T23:55:21.090Z,1.00
2023-04-22T23:57:48.300Z,1.10
